EZY5TC EGKK-EGPH
Flight info
| Callsign | EZY5TC |
|---|---|
| Flight time | 1h 5m |
| Altitude | 36000 |
| Route | LAM L10 BPK UN601 RIBEL DCT INPIP |
| Aircraft | A320/M-SDE3FGHIRWY/LB1 |
Departure
| Time | 2026-05-05 20:12 |
|---|---|
| Airport | London Gatwick Airport (EGKK) |
Arrival
| Time | 2026-05-05 21:18 |
|---|---|
| Airport | Edinburgh Airport (EGPH) |
| Time | Latitude | Longitude | Altitude | Speed | Heading |
|---|---|---|---|---|---|
| 2026-05-05 19:27 | 51.15575 | -0.17762 | 205 ft | 0 kts | 347° |
| 2026-05-05 19:51 | 51.15557 | -0.17755 | 217 ft | 4 kts | 342° |
| 2026-05-05 19:51 | 51.15532 | -0.17739 | 217 ft | 4 kts | 326° |
| 2026-05-05 19:51 | 51.15515 | -0.17711 | 211 ft | 4 kts | 285° |
| 2026-05-05 19:52 | 51.15513 | -0.17690 | 211 ft | 1 kts | 260° |
| 2026-05-05 19:52 | 51.15514 | -0.17688 | 211 ft | 0 kts | 260° |
| 2026-05-05 19:55 | 51.15510 | -0.17723 | 209 ft | 8 kts | 259° |
| 2026-05-05 19:55 | 51.15491 | -0.17861 | 205 ft | 14 kts | 257° |
| 2026-05-05 19:55 | 51.15471 | -0.18007 | 212 ft | 7 kts | 257° |
| 2026-05-05 19:55 | 51.15462 | -0.18069 | 207 ft | 5 kts | 257° |
| 2026-05-05 19:56 | 51.15459 | -0.18091 | 208 ft | 0 kts | 257° |
| 2026-05-05 19:57 | 51.15455 | -0.18122 | 207 ft | 12 kts | 257° |
| 2026-05-05 19:57 | 51.15432 | -0.18261 | 205 ft | 10 kts | 240° |
| 2026-05-05 19:58 | 51.15374 | -0.18274 | 214 ft | 8 kts | 172° |
| 2026-05-05 19:58 | 51.15304 | -0.18251 | 215 ft | 13 kts | 168° |
| 2026-05-05 19:58 | 51.15209 | -0.18228 | 210 ft | 14 kts | 198° |
| 2026-05-05 19:58 | 51.15181 | -0.18355 | 205 ft | 12 kts | 261° |
| 2026-05-05 19:59 | 51.15166 | -0.18477 | 211 ft | 11 kts | 257° |
| 2026-05-05 19:59 | 51.15147 | -0.18608 | 205 ft | 16 kts | 257° |
| 2026-05-05 19:59 | 51.15118 | -0.18825 | 207 ft | 22 kts | 259° |
| 2026-05-05 19:59 | 51.15085 | -0.19069 | 215 ft | 23 kts | 258° |
| 2026-05-05 20:00 | 51.15050 | -0.19323 | 205 ft | 24 kts | 258° |
| 2026-05-05 20:00 | 51.15013 | -0.19591 | 211 ft | 25 kts | 257° |
| 2026-05-05 20:00 | 51.14974 | -0.19874 | 205 ft | 27 kts | 257° |
| 2026-05-05 20:00 | 51.14932 | -0.20177 | 205 ft | 29 kts | 257° |
| 2026-05-05 20:01 | 51.14890 | -0.20481 | 204 ft | 20 kts | 257° |
| 2026-05-05 20:01 | 51.14859 | -0.20700 | 205 ft | 20 kts | 257° |
| 2026-05-05 20:01 | 51.14830 | -0.20907 | 205 ft | 18 kts | 257° |
| 2026-05-05 20:01 | 51.14804 | -0.21089 | 206 ft | 13 kts | 257° |
| 2026-05-05 20:02 | 51.14780 | -0.21214 | 209 ft | 11 kts | 255° |
| 2026-05-05 20:02 | 51.14763 | -0.21328 | 205 ft | 10 kts | 257° |
| 2026-05-05 20:02 | 51.14731 | -0.21404 | 208 ft | 4 kts | 198° |
| 2026-05-05 20:02 | 51.14726 | -0.21405 | 210 ft | 0 kts | 188° |
| 2026-05-05 20:03 | 51.14678 | -0.21386 | 210 ft | 11 kts | 153° |
| 2026-05-05 20:03 | 51.14622 | -0.21333 | 209 ft | 6 kts | 165° |
| 2026-05-05 20:03 | 51.14620 | -0.21332 | 209 ft | 0 kts | 165° |
| 2026-05-05 20:09 | 51.14575 | -0.21309 | 209 ft | 18 kts | 155° |
| 2026-05-05 20:10 | 51.14525 | -0.21138 | 216 ft | 18 kts | 81° |
| 2026-05-05 20:10 | 51.14528 | -0.21112 | 210 ft | 0 kts | 78° |
| 2026-05-05 20:11 | 51.14568 | -0.20819 | 214 ft | 65 kts | 77° |
| 2026-05-05 20:11 | 51.14717 | -0.19763 | 211 ft | 128 kts | 77° |
| 2026-05-05 20:12 | 51.14942 | -0.18162 | 408 ft | 158 kts | 77° |
| 2026-05-05 20:12 | 51.15189 | -0.16413 | 1005 ft | 166 kts | 77° |
| 2026-05-05 20:12 | 51.15472 | -0.14618 | 1658 ft | 171 kts | 75° |
| 2026-05-05 20:12 | 51.15803 | -0.12795 | 2312 ft | 172 kts | 72° |
| 2026-05-05 20:13 | 51.16090 | -0.10940 | 2706 ft | 191 kts | 77° |
| 2026-05-05 20:13 | 51.16363 | -0.08742 | 3019 ft | 214 kts | 78° |
| 2026-05-05 20:13 | 51.16847 | -0.06380 | 3378 ft | 237 kts | 57° |
| 2026-05-05 20:13 | 51.17832 | -0.04150 | 3980 ft | 252 kts | 52° |
| 2026-05-05 20:14 | 51.18902 | -0.01890 | 4733 ft | 259 kts | 51° |
| 2026-05-05 20:14 | 51.19999 | 0.00387 | 5029 ft | 258 kts | 50° |
| 2026-05-05 20:14 | 51.21092 | 0.02646 | 5086 ft | 257 kts | 50° |
| 2026-05-05 20:14 | 51.22188 | 0.04906 | 5098 ft | 257 kts | 50° |
| 2026-05-05 20:15 | 51.23279 | 0.07160 | 5108 ft | 257 kts | 50° |
| 2026-05-05 20:15 | 51.24363 | 0.09426 | 5112 ft | 258 kts | 53° |
| 2026-05-05 20:15 | 51.25130 | 0.12020 | 5121 ft | 261 kts | 72° |
| 2026-05-05 20:15 | 51.25486 | 0.14873 | 5134 ft | 262 kts | 76° |
| 2026-05-05 20:16 | 51.25822 | 0.17732 | 5142 ft | 262 kts | 76° |
| 2026-05-05 20:16 | 51.26147 | 0.20496 | 5151 ft | 262 kts | 76° |
| 2026-05-05 20:16 | 51.26483 | 0.23351 | 5161 ft | 262 kts | 76° |
| 2026-05-05 20:16 | 51.26821 | 0.26212 | 5166 ft | 262 kts | 76° |
| 2026-05-05 20:17 | 51.27159 | 0.29067 | 5177 ft | 262 kts | 76° |
| 2026-05-05 20:17 | 51.27554 | 0.31898 | 5179 ft | 260 kts | 66° |
| 2026-05-05 20:17 | 51.28498 | 0.34299 | 5176 ft | 255 kts | 42° |
| 2026-05-05 20:17 | 51.29965 | 0.35828 | 5173 ft | 252 kts | 19° |
| 2026-05-05 20:18 | 51.31687 | 0.36247 | 5165 ft | 253 kts | 356° |
| 2026-05-05 20:18 | 51.33384 | 0.35527 | 5027 ft | 255 kts | 339° |
| 2026-05-05 20:18 | 51.35029 | 0.34461 | 5025 ft | 255 kts | 339° |
| 2026-05-05 20:18 | 51.36674 | 0.33389 | 5029 ft | 255 kts | 339° |
| 2026-05-05 20:19 | 51.38324 | 0.32314 | 5026 ft | 256 kts | 339° |
| 2026-05-05 20:19 | 51.39973 | 0.31240 | 5028 ft | 256 kts | 339° |
| 2026-05-05 20:19 | 51.41626 | 0.30165 | 5032 ft | 256 kts | 339° |
| 2026-05-05 20:19 | 51.43303 | 0.29075 | 5474 ft | 263 kts | 339° |
| 2026-05-05 20:20 | 51.45005 | 0.27969 | 5946 ft | 263 kts | 339° |
| 2026-05-05 20:20 | 51.46691 | 0.26872 | 6025 ft | 261 kts | 339° |
| 2026-05-05 20:20 | 51.48388 | 0.25770 | 6038 ft | 260 kts | 339° |
| 2026-05-05 20:20 | 51.50050 | 0.24689 | 6039 ft | 260 kts | 339° |
| 2026-05-05 20:21 | 51.51728 | 0.23599 | 6029 ft | 260 kts | 339° |
| 2026-05-05 20:21 | 51.53403 | 0.22507 | 6043 ft | 260 kts | 339° |
| 2026-05-05 20:21 | 51.55084 | 0.21407 | 6042 ft | 261 kts | 339° |
| 2026-05-05 20:21 | 51.56764 | 0.20302 | 6041 ft | 260 kts | 339° |
| 2026-05-05 20:22 | 51.58440 | 0.19200 | 6031 ft | 261 kts | 339° |
| 2026-05-05 20:22 | 51.60117 | 0.18099 | 6030 ft | 261 kts | 339° |
| 2026-05-05 20:22 | 51.61802 | 0.16999 | 6030 ft | 261 kts | 339° |
| 2026-05-05 20:22 | 51.63457 | 0.15838 | 6031 ft | 262 kts | 332° |
| 2026-05-05 20:23 | 51.64878 | 0.14110 | 6042 ft | 265 kts | 315° |
| 2026-05-05 20:23 | 51.65988 | 0.11692 | 6752 ft | 270 kts | 304° |
| 2026-05-05 20:23 | 51.67001 | 0.09129 | 7700 ft | 272 kts | 304° |
| 2026-05-05 20:23 | 51.68037 | 0.06568 | 8605 ft | 275 kts | 304° |
| 2026-05-05 20:24 | 51.69090 | 0.03979 | 9495 ft | 278 kts | 304° |
| 2026-05-05 20:24 | 51.70160 | 0.01333 | 10250 ft | 287 kts | 304° |
| 2026-05-05 20:24 | 51.71291 | -0.01469 | 10595 ft | 310 kts | 304° |
| 2026-05-05 20:24 | 51.72500 | -0.04472 | 11035 ft | 326 kts | 303° |
| 2026-05-05 20:25 | 51.73735 | -0.07527 | 11737 ft | 331 kts | 305° |
| 2026-05-05 20:25 | 51.75234 | -0.10362 | 12490 ft | 335 kts | 316° |
| 2026-05-05 20:25 | 51.77091 | -0.12680 | 13244 ft | 340 kts | 328° |
| 2026-05-05 20:25 | 51.79083 | -0.14576 | 13935 ft | 344 kts | 329° |
| 2026-05-05 20:26 | 51.81155 | -0.16543 | 14611 ft | 347 kts | 328° |
| 2026-05-05 20:26 | 51.83247 | -0.18529 | 15208 ft | 351 kts | 328° |
| 2026-05-05 20:26 | 51.85337 | -0.20518 | 15833 ft | 355 kts | 328° |
| 2026-05-05 20:26 | 51.87511 | -0.22591 | 16463 ft | 361 kts | 328° |
| 2026-05-05 20:27 | 51.89653 | -0.24639 | 17093 ft | 364 kts | 328° |
| 2026-05-05 20:27 | 51.91851 | -0.26745 | 17695 ft | 369 kts | 328° |
| 2026-05-05 20:27 | 51.94073 | -0.28878 | 18293 ft | 374 kts | 328° |
| 2026-05-05 20:27 | 51.96320 | -0.31035 | 18835 ft | 377 kts | 328° |
| 2026-05-05 20:28 | 51.98587 | -0.33206 | 19420 ft | 379 kts | 328° |
| 2026-05-05 20:28 | 52.00865 | -0.35391 | 20012 ft | 382 kts | 327° |
| 2026-05-05 20:28 | 52.03155 | -0.37596 | 20595 ft | 384 kts | 327° |
| 2026-05-05 20:28 | 52.05459 | -0.39820 | 21185 ft | 386 kts | 327° |
| 2026-05-05 20:29 | 52.07805 | -0.42090 | 21764 ft | 389 kts | 327° |
| 2026-05-05 20:29 | 52.10113 | -0.44319 | 22319 ft | 392 kts | 327° |
| 2026-05-05 20:29 | 52.12470 | -0.46593 | 22877 ft | 395 kts | 327° |
| 2026-05-05 20:29 | 52.14839 | -0.48884 | 23426 ft | 397 kts | 327° |
| 2026-05-05 20:30 | 52.17221 | -0.51195 | 23892 ft | 400 kts | 327° |
| 2026-05-05 20:30 | 52.19623 | -0.53528 | 24313 ft | 403 kts | 327° |
| 2026-05-05 20:30 | 52.22038 | -0.55875 | 24708 ft | 406 kts | 327° |
| 2026-05-05 20:30 | 52.24476 | -0.58249 | 25095 ft | 410 kts | 326° |
| 2026-05-05 20:31 | 52.26933 | -0.60641 | 25469 ft | 413 kts | 326° |
| 2026-05-05 20:31 | 52.29409 | -0.63053 | 25845 ft | 417 kts | 326° |
| 2026-05-05 20:31 | 52.31910 | -0.65494 | 26188 ft | 420 kts | 326° |
| 2026-05-05 20:31 | 52.34427 | -0.67957 | 26552 ft | 423 kts | 326° |
| 2026-05-05 20:32 | 52.36963 | -0.70441 | 26918 ft | 426 kts | 326° |
| 2026-05-05 20:32 | 52.39518 | -0.72945 | 27278 ft | 429 kts | 326° |
| 2026-05-05 20:32 | 52.42087 | -0.75464 | 27631 ft | 432 kts | 326° |
| 2026-05-05 20:32 | 52.44670 | -0.78006 | 27976 ft | 435 kts | 326° |
| 2026-05-05 20:33 | 52.47271 | -0.80575 | 28315 ft | 437 kts | 325° |
| 2026-05-05 20:33 | 52.49886 | -0.83160 | 28644 ft | 440 kts | 325° |
| 2026-05-05 20:33 | 52.52517 | -0.85759 | 28976 ft | 443 kts | 325° |
| 2026-05-05 20:33 | 52.55162 | -0.88374 | 29307 ft | 445 kts | 325° |
| 2026-05-05 20:34 | 52.57820 | -0.91010 | 29623 ft | 447 kts | 325° |
| 2026-05-05 20:34 | 52.60491 | -0.93657 | 29923 ft | 449 kts | 325° |
| 2026-05-05 20:34 | 52.63177 | -0.96314 | 30202 ft | 452 kts | 325° |
| 2026-05-05 20:34 | 52.65873 | -0.98986 | 30455 ft | 454 kts | 325° |
| 2026-05-05 20:35 | 52.68576 | -1.01676 | 30739 ft | 454 kts | 326° |
| 2026-05-05 20:35 | 52.71282 | -1.04376 | 31018 ft | 455 kts | 326° |
| 2026-05-05 20:35 | 52.73953 | -1.07050 | 31285 ft | 456 kts | 326° |
| 2026-05-05 20:35 | 52.76662 | -1.09768 | 31612 ft | 454 kts | 326° |
| 2026-05-05 20:36 | 52.79351 | -1.12470 | 31997 ft | 452 kts | 327° |
| 2026-05-05 20:36 | 52.82032 | -1.15163 | 32344 ft | 450 kts | 327° |
| 2026-05-05 20:36 | 52.84704 | -1.17845 | 32683 ft | 449 kts | 327° |
| 2026-05-05 20:36 | 52.87375 | -1.20526 | 33012 ft | 448 kts | 326° |
| 2026-05-05 20:37 | 52.89175 | -1.22335 | 33236 ft | 447 kts | 327° |
| 2026-05-05 20:37 | 52.91828 | -1.25011 | 33560 ft | 446 kts | 327° |
| 2026-05-05 20:37 | 52.94477 | -1.27694 | 33881 ft | 446 kts | 327° |
| 2026-05-05 20:37 | 52.97117 | -1.30373 | 34194 ft | 444 kts | 327° |
| 2026-05-05 20:38 | 52.99753 | -1.33045 | 34447 ft | 444 kts | 326° |
| 2026-05-05 20:38 | 53.02384 | -1.35707 | 34758 ft | 442 kts | 327° |
| 2026-05-05 20:38 | 53.05007 | -1.38368 | 35013 ft | 442 kts | 327° |
| 2026-05-05 20:38 | 53.07631 | -1.41041 | 35226 ft | 442 kts | 327° |
| 2026-05-05 20:39 | 53.10254 | -1.43718 | 35446 ft | 442 kts | 326° |
| 2026-05-05 20:39 | 53.12880 | -1.46402 | 35666 ft | 442 kts | 327° |
| 2026-05-05 20:39 | 53.15498 | -1.49083 | 35894 ft | 442 kts | 326° |
| 2026-05-05 20:39 | 53.18124 | -1.51771 | 36033 ft | 442 kts | 326° |
| 2026-05-05 20:40 | 53.20738 | -1.54448 | 36052 ft | 440 kts | 327° |
| 2026-05-05 20:40 | 53.25903 | -1.59760 | 36059 ft | 438 kts | 326° |
| 2026-05-05 20:41 | 53.31080 | -1.65100 | 36060 ft | 437 kts | 326° |
| 2026-05-05 20:41 | 53.36253 | -1.70446 | 36061 ft | 437 kts | 326° |
| 2026-05-05 20:42 | 53.41426 | -1.75806 | 36066 ft | 437 kts | 326° |
| 2026-05-05 20:42 | 53.46597 | -1.81176 | 36071 ft | 437 kts | 326° |
| 2026-05-05 20:43 | 53.51765 | -1.86554 | 36067 ft | 437 kts | 326° |
| 2026-05-05 20:43 | 53.56936 | -1.91954 | 36079 ft | 437 kts | 326° |
| 2026-05-05 20:44 | 53.62104 | -1.97360 | 36079 ft | 437 kts | 326° |
| 2026-05-05 20:44 | 53.67266 | -2.02787 | 36079 ft | 437 kts | 325° |
| 2026-05-05 20:45 | 53.75030 | -2.10723 | 36093 ft | 440 kts | 333° |
| 2026-05-05 20:45 | 53.80707 | -2.14652 | 36096 ft | 441 kts | 335° |
| 2026-05-05 20:46 | 53.86400 | -2.18524 | 36095 ft | 441 kts | 335° |
| 2026-05-05 20:46 | 53.92092 | -2.22411 | 36088 ft | 441 kts | 335° |
| 2026-05-05 20:47 | 53.97781 | -2.26310 | 36104 ft | 441 kts | 335° |
| 2026-05-05 20:47 | 54.03467 | -2.30230 | 36100 ft | 441 kts | 335° |
| 2026-05-05 20:48 | 54.09146 | -2.34161 | 36084 ft | 441 kts | 335° |
| 2026-05-05 20:48 | 54.14824 | -2.38094 | 36081 ft | 441 kts | 335° |
| 2026-05-05 20:49 | 54.20509 | -2.42037 | 36084 ft | 441 kts | 335° |
| 2026-05-05 20:49 | 54.26184 | -2.45997 | 36094 ft | 441 kts | 334° |
| 2026-05-05 20:50 | 54.31860 | -2.49973 | 36094 ft | 441 kts | 334° |
| 2026-05-05 20:50 | 54.37502 | -2.53931 | 36099 ft | 441 kts | 335° |
| 2026-05-05 20:51 | 54.40340 | -2.55926 | 35963 ft | 441 kts | 335° |
| 2026-05-05 20:51 | 54.43179 | -2.57925 | 35712 ft | 441 kts | 335° |
| 2026-05-05 20:51 | 54.46023 | -2.59924 | 34979 ft | 444 kts | 335° |
| 2026-05-05 20:51 | 54.48888 | -2.61940 | 34147 ft | 447 kts | 335° |
| 2026-05-05 20:52 | 54.51771 | -2.63975 | 33287 ft | 447 kts | 335° |
| 2026-05-05 20:52 | 54.54622 | -2.65987 | 32792 ft | 440 kts | 335° |
| 2026-05-05 20:52 | 54.57441 | -2.67977 | 32202 ft | 435 kts | 335° |
| 2026-05-05 20:52 | 54.60224 | -2.69950 | 31628 ft | 431 kts | 335° |
| 2026-05-05 20:53 | 54.62981 | -2.71915 | 31069 ft | 426 kts | 334° |
| 2026-05-05 20:53 | 54.65709 | -2.73867 | 30511 ft | 423 kts | 334° |
| 2026-05-05 20:53 | 54.68413 | -2.75802 | 29921 ft | 419 kts | 334° |
| 2026-05-05 20:53 | 54.71096 | -2.77718 | 29361 ft | 414 kts | 335° |
| 2026-05-05 20:54 | 54.73745 | -2.79607 | 28834 ft | 409 kts | 334° |
| 2026-05-05 20:54 | 54.76360 | -2.81477 | 28286 ft | 405 kts | 334° |
| 2026-05-05 20:54 | 54.78948 | -2.83331 | 27772 ft | 400 kts | 334° |
| 2026-05-05 20:54 | 54.81506 | -2.85170 | 27269 ft | 396 kts | 334° |
| 2026-05-05 20:55 | 54.84033 | -2.86990 | 26778 ft | 392 kts | 334° |
| 2026-05-05 20:55 | 54.86538 | -2.88798 | 26303 ft | 388 kts | 334° |
| 2026-05-05 20:55 | 54.89016 | -2.90588 | 25801 ft | 385 kts | 334° |
| 2026-05-05 20:55 | 54.91485 | -2.92368 | 25252 ft | 384 kts | 334° |
| 2026-05-05 20:56 | 54.93950 | -2.94143 | 24713 ft | 383 kts | 335° |
| 2026-05-05 20:56 | 54.96404 | -2.95915 | 24186 ft | 381 kts | 335° |
| 2026-05-05 20:56 | 54.98850 | -2.97688 | 23651 ft | 381 kts | 335° |
| 2026-05-05 20:56 | 55.01289 | -2.99461 | 23049 ft | 375 kts | 334° |
| 2026-05-05 20:57 | 55.03667 | -3.01189 | 22545 ft | 367 kts | 334° |
| 2026-05-05 20:57 | 55.06008 | -3.02894 | 22037 ft | 363 kts | 334° |
| 2026-05-05 20:57 | 55.08322 | -3.04582 | 21536 ft | 359 kts | 334° |
| 2026-05-05 20:57 | 55.10620 | -3.06264 | 21042 ft | 358 kts | 334° |
| 2026-05-05 20:58 | 55.12915 | -3.07945 | 20533 ft | 357 kts | 334° |
| 2026-05-05 20:58 | 55.15200 | -3.09615 | 20035 ft | 355 kts | 334° |
| 2026-05-05 20:58 | 55.17498 | -3.11294 | 19243 ft | 362 kts | 334° |
| 2026-05-05 20:58 | 55.19840 | -3.13011 | 18550 ft | 367 kts | 334° |
| 2026-05-05 20:59 | 55.22168 | -3.14715 | 18070 ft | 357 kts | 334° |
| 2026-05-05 20:59 | 55.24447 | -3.16389 | 17143 ft | 352 kts | 334° |
| 2026-05-05 20:59 | 55.26640 | -3.18001 | 16816 ft | 332 kts | 334° |
| 2026-05-05 20:59 | 55.28752 | -3.19445 | 16346 ft | 320 kts | 341° |
| 2026-05-05 21:00 | 55.30918 | -3.20093 | 15947 ft | 316 kts | 354° |
| 2026-05-05 21:00 | 55.33084 | -3.19915 | 15622 ft | 317 kts | 1° |
| 2026-05-05 21:00 | 55.35293 | -3.19583 | 15158 ft | 318 kts | 1° |
| 2026-05-05 21:00 | 55.37498 | -3.19243 | 14935 ft | 311 kts | 1° |
| 2026-05-05 21:01 | 55.39614 | -3.18909 | 14607 ft | 307 kts | 2° |
| 2026-05-05 21:01 | 55.41722 | -3.18572 | 13993 ft | 303 kts | 2° |
| 2026-05-05 21:01 | 55.43811 | -3.18239 | 13294 ft | 300 kts | 2° |
| 2026-05-05 21:01 | 55.45877 | -3.17914 | 12650 ft | 296 kts | 2° |
| 2026-05-05 21:02 | 55.47916 | -3.17599 | 11982 ft | 293 kts | 2° |
| 2026-05-05 21:02 | 55.49934 | -3.17289 | 11376 ft | 288 kts | 2° |
| 2026-05-05 21:02 | 55.51925 | -3.16981 | 10725 ft | 286 kts | 2° |
| 2026-05-05 21:02 | 55.53897 | -3.16669 | 10206 ft | 286 kts | 2° |
| 2026-05-05 21:03 | 55.55889 | -3.16355 | 9761 ft | 286 kts | 3° |
| 2026-05-05 21:03 | 55.57841 | -3.16046 | 9468 ft | 279 kts | 3° |
| 2026-05-05 21:03 | 55.59768 | -3.15742 | 9093 ft | 277 kts | 3° |
| 2026-05-05 21:03 | 55.61669 | -3.15445 | 8571 ft | 272 kts | 3° |
| 2026-05-05 21:04 | 55.63547 | -3.15150 | 7870 ft | 270 kts | 3° |
| 2026-05-05 21:04 | 55.65406 | -3.14868 | 7280 ft | 263 kts | 0° |
| 2026-05-05 21:04 | 55.67124 | -3.15309 | 7141 ft | 241 kts | 338° |
| 2026-05-05 21:04 | 55.68552 | -3.16813 | 7126 ft | 239 kts | 317° |
| 2026-05-05 21:05 | 55.69553 | -3.19160 | 7088 ft | 241 kts | 296° |
| 2026-05-05 21:05 | 55.69970 | -3.22031 | 6958 ft | 244 kts | 274° |
| 2026-05-05 21:05 | 55.69720 | -3.25002 | 6819 ft | 246 kts | 254° |
| 2026-05-05 21:05 | 55.69191 | -3.27896 | 6733 ft | 247 kts | 255° |
| 2026-05-05 21:06 | 55.68662 | -3.30793 | 6654 ft | 248 kts | 254° |
| 2026-05-05 21:06 | 55.68135 | -3.33701 | 6573 ft | 247 kts | 255° |
| 2026-05-05 21:06 | 55.67608 | -3.36599 | 6490 ft | 247 kts | 254° |
| 2026-05-05 21:06 | 55.67082 | -3.39476 | 6412 ft | 245 kts | 255° |
| 2026-05-05 21:07 | 55.66560 | -3.42344 | 6341 ft | 244 kts | 254° |
| 2026-05-05 21:07 | 55.66040 | -3.45208 | 6270 ft | 244 kts | 255° |
| 2026-05-05 21:07 | 55.65519 | -3.48059 | 6189 ft | 244 kts | 255° |
| 2026-05-05 21:07 | 55.64993 | -3.50922 | 6107 ft | 243 kts | 255° |
| 2026-05-05 21:08 | 55.64778 | -3.53784 | 5990 ft | 227 kts | 277° |
| 2026-05-05 21:08 | 55.65111 | -3.56404 | 5900 ft | 214 kts | 296° |
| 2026-05-05 21:08 | 55.65896 | -3.58614 | 5791 ft | 212 kts | 315° |
| 2026-05-05 21:08 | 55.66972 | -3.60407 | 5679 ft | 214 kts | 319° |
| 2026-05-05 21:09 | 55.68076 | -3.62186 | 5572 ft | 214 kts | 320° |
| 2026-05-05 21:09 | 55.69182 | -3.63962 | 5467 ft | 215 kts | 321° |
| 2026-05-05 21:09 | 55.70304 | -3.65646 | 5357 ft | 214 kts | 323° |
| 2026-05-05 21:09 | 55.71467 | -3.67324 | 5246 ft | 216 kts | 323° |
| 2026-05-05 21:10 | 55.72635 | -3.68998 | 5130 ft | 216 kts | 323° |
| 2026-05-05 21:10 | 55.73805 | -3.70679 | 5023 ft | 217 kts | 323° |
| 2026-05-05 21:10 | 55.74975 | -3.72367 | 4908 ft | 217 kts | 323° |
| 2026-05-05 21:10 | 55.76114 | -3.74124 | 4794 ft | 218 kts | 320° |
| 2026-05-05 21:11 | 55.77324 | -3.75685 | 4676 ft | 214 kts | 338° |
| 2026-05-05 21:11 | 55.78733 | -3.76421 | 4586 ft | 210 kts | 358° |
| 2026-05-05 21:11 | 55.80174 | -3.76276 | 4467 ft | 205 kts | 16° |
| 2026-05-05 21:11 | 55.81447 | -3.75341 | 4343 ft | 193 kts | 34° |
| 2026-05-05 21:12 | 55.82433 | -3.73831 | 4238 ft | 183 kts | 51° |
| 2026-05-05 21:12 | 55.83135 | -3.71952 | 4148 ft | 182 kts | 59° |
| 2026-05-05 21:12 | 55.83795 | -3.70038 | 4069 ft | 181 kts | 59° |
| 2026-05-05 21:12 | 55.84454 | -3.68126 | 3982 ft | 182 kts | 59° |
| 2026-05-05 21:13 | 55.85111 | -3.66213 | 3783 ft | 181 kts | 59° |
| 2026-05-05 21:13 | 55.85765 | -3.64310 | 3555 ft | 179 kts | 59° |
| 2026-05-05 21:13 | 55.86414 | -3.62419 | 3311 ft | 178 kts | 60° |
| 2026-05-05 21:13 | 55.87057 | -3.60542 | 3062 ft | 177 kts | 60° |
| 2026-05-05 21:14 | 55.87690 | -3.58695 | 2855 ft | 172 kts | 60° |
| 2026-05-05 21:14 | 55.88306 | -3.56895 | 2589 ft | 168 kts | 61° |
| 2026-05-05 21:14 | 55.88893 | -3.55180 | 2347 ft | 159 kts | 61° |
| 2026-05-05 21:14 | 55.89452 | -3.53545 | 2123 ft | 145 kts | 62° |
| 2026-05-05 21:15 | 55.89947 | -3.52098 | 1955 ft | 132 kts | 62° |
| 2026-05-05 21:15 | 55.90420 | -3.50711 | 1773 ft | 130 kts | 63° |
| 2026-05-05 21:15 | 55.90892 | -3.49327 | 1586 ft | 128 kts | 62° |
| 2026-05-05 21:15 | 55.91346 | -3.47994 | 1410 ft | 127 kts | 62° |
| 2026-05-05 21:16 | 55.91804 | -3.46649 | 1215 ft | 127 kts | 62° |
| 2026-05-05 21:16 | 55.92263 | -3.45298 | 1031 ft | 128 kts | 63° |
| 2026-05-05 21:16 | 55.92723 | -3.43948 | 848 ft | 126 kts | 63° |
| 2026-05-05 21:16 | 55.93182 | -3.42599 | 672 ft | 127 kts | 61° |
| 2026-05-05 21:17 | 55.93644 | -3.41241 | 496 ft | 130 kts | 61° |
| 2026-05-05 21:17 | 55.94111 | -3.39876 | 310 ft | 128 kts | 63° |
| 2026-05-05 21:17 | 55.94568 | -3.38525 | 142 ft | 126 kts | 62° |
| 2026-05-05 21:17 | 55.94951 | -3.37371 | 111 ft | 74 kts | 59° |
| 2026-05-05 21:18 | 55.95087 | -3.36966 | 114 ft | 25 kts | 57° |
| 2026-05-05 21:18 | 55.95221 | -3.36587 | 111 ft | 37 kts | 57° |
| 2026-05-05 21:18 | 55.95241 | -3.36403 | 112 ft | 9 kts | 144° |
| 2026-05-05 21:18 | 55.95200 | -3.36356 | 115 ft | 6 kts | 147° |
| 2026-05-05 21:19 | 55.95172 | -3.36325 | 113 ft | 2 kts | 148° |
| 2026-05-05 21:19 | 55.95170 | -3.36323 | 112 ft | 0 kts | 148° |
| 2026-05-05 21:20 | 55.95141 | -3.36308 | 116 ft | 10 kts | 183° |
| 2026-05-05 21:20 | 55.95096 | -3.36388 | 115 ft | 9 kts | 229° |
| 2026-05-05 21:20 | 55.95044 | -3.36380 | 115 ft | 9 kts | 159° |
| 2026-05-05 21:20 | 55.95003 | -3.36430 | 116 ft | 5 kts | 235° |
| 2026-05-05 21:21 | 55.94983 | -3.36479 | 115 ft | 4 kts | 229° |
| 2026-05-05 21:21 | 55.94966 | -3.36511 | 114 ft | 3 kts | 244° |
| 2026-05-05 21:21 | 55.94956 | -3.36562 | 114 ft | 8 kts | 246° |
| 2026-05-05 21:21 | 55.94931 | -3.36639 | 116 ft | 6 kts | 240° |
| 2026-05-05 21:22 | 55.94907 | -3.36663 | 116 ft | 3 kts | 166° |
| 2026-05-05 21:22 | 55.94888 | -3.36645 | 115 ft | 3 kts | 150° |
| 2026-05-05 21:22 | 55.94864 | -3.36617 | 115 ft | 5 kts | 145° |
| 2026-05-05 21:22 | 55.94857 | -3.36607 | 116 ft | 1 kts | 145° |
| 2026-05-05 21:23 | 55.94856 | -3.36606 | 116 ft | 0 kts | 145° |